createdAt,value
2017-10-02T00:00:51.271Z,99.46
2017-10-02T00:01:51.260Z,99.46
2017-10-02T00:02:51.252Z,98.99
2017-10-02T00:03:51.567Z,99.08
2017-10-02T00:04:51.236Z,99.65
2017-10-02T00:05:51.228Z,99.18
2017-10-02T00:06:51.218Z,99.18
2017-10-02T00:07:51.212Z,99.55
2017-10-02T00:08:51.201Z,99.46
2017-10-02T00:09:51.193Z,99.55
2017-10-02T00:10:51.183Z,99.46
2017-10-02T00:11:51.174Z,99.08
2017-10-02T00:12:51.165Z,99.46
2017-10-02T00:13:51.156Z,99.46
2017-10-02T00:14:51.470Z,99.55
2017-10-02T00:15:51.138Z,99.46
2017-10-02T00:16:51.130Z,99.46
2017-10-02T00:17:51.123Z,99.46
2017-10-02T00:18:51.113Z,99.46
2017-10-02T00:19:51.422Z,99.27
2017-10-02T00:20:51.415Z,99.27
2017-10-02T00:21:51.403Z,99.27
2017-10-02T00:22:51.399Z,99.46
2017-10-02T00:23:51.395Z,99.55
2017-10-02T00:24:51.381Z,99.27
2017-10-02T00:25:51.372Z,99.18
2017-10-02T00:26:51.366Z,99.27
2017-10-02T00:27:51.034Z,99.08
2017-10-02T00:28:51.346Z,99.18
2017-10-02T00:29:51.336Z,98.89
2017-10-02T00:30:51.006Z,98.99
2017-10-02T00:31:51.324Z,99.37
2017-10-02T00:32:51.308Z,99.08
2017-10-02T00:33:51.300Z,99.46
2017-10-02T00:34:51.291Z,98.89
2017-10-02T00:35:50.961Z,99.18
2017-10-02T00:36:51.275Z,98.89
2017-10-02T00:37:50.947Z,98.89
2017-10-02T00:38:51.254Z,99.18
2017-10-02T00:39:51.247Z,99.18
2017-10-02T00:40:50.919Z,99.03
2017-10-02T00:41:50.908Z,99.03
2017-10-02T00:42:50.901Z,99.65
2017-10-02T00:43:51.212Z,99.08
2017-10-02T00:44:51.209Z,99.41
2017-10-02T00:45:51.195Z,99.08
2017-10-02T00:46:51.187Z,99.41
2017-10-02T00:47:51.178Z,99.37
2017-10-02T00:48:51.166Z,99.46
2017-10-02T00:49:51.155Z,99.03
2017-10-02T00:50:51.159Z,99.32
2017-10-02T00:51:51.147Z,99.22
2017-10-02T00:52:51.129Z,99.65
2017-10-02T00:53:50.801Z,99.41
2017-10-02T00:54:51.114Z,98.55
2017-10-02T00:55:51.106Z,98.55
2017-10-02T00:56:51.097Z,99.6
2017-10-02T00:57:51.087Z,99.22
2017-10-02T00:58:51.080Z,99.13
2017-10-02T00:59:51.070Z,99.22
2017-10-02T01:00:51.060Z,99.22
2017-10-02T01:01:51.048Z,99.41
2017-10-02T01:02:51.043Z,99.13
2017-10-02T01:03:51.033Z,99.41
2017-10-02T01:04:51.023Z,98.65
2017-10-02T01:05:51.016Z,99.13
2017-10-02T01:06:51.006Z,99.6
2017-10-02T01:07:50.996Z,99.32
2017-10-02T01:08:50.993Z,99.51
2017-10-02T01:09:50.977Z,99.32
2017-10-02T01:10:50.652Z,99.41
2017-10-02T01:11:50.960Z,99.22
2017-10-02T01:12:50.953Z,99.22
2017-10-02T01:13:50.944Z,99.41
2017-10-02T01:14:50.936Z,99.41
2017-10-02T01:15:50.926Z,99.41
2017-10-02T01:16:50.914Z,99.32
2017-10-02T01:17:50.586Z,99.51
2017-10-02T01:18:50.579Z,99.41
2017-10-02T01:19:50.571Z,99.41
2017-10-02T01:20:50.877Z,99.41
2017-10-02T01:21:50.550Z,99.51
2017-10-02T01:22:50.861Z,99.32
2017-10-02T01:23:50.858Z,99.41
2017-10-02T01:24:50.841Z,99.41
2017-10-02T01:25:50.833Z,99.22
2017-10-02T01:26:50.824Z,99.13
2017-10-02T01:27:50.814Z,99.32
2017-10-02T01:28:50.807Z,99.32
2017-10-02T01:29:50.795Z,99.13
2017-10-02T01:30:50.467Z,99.03
2017-10-02T01:31:50.779Z,99.22
2017-10-02T01:32:50.770Z,99.22
2017-10-02T01:33:50.763Z,99.32
2017-10-02T01:34:50.751Z,99.41
2017-10-02T01:35:50.743Z,99.32
2017-10-02T01:36:50.734Z,99.22
2017-10-02T01:37:50.404Z,99.51
2017-10-02T01:38:50.716Z,99.22
2017-10-02T01:39:50.713Z,99.32
2017-10-02T01:40:50.701Z,99.22
2017-10-02T01:41:50.692Z,99.41
2017-10-02T01:42:50.680Z,99.22
2017-10-02T01:43:50.672Z,99.32
2017-10-02T01:44:50.342Z,99.32
2017-10-02T01:45:50.334Z,99.41
2017-10-02T01:46:50.324Z,99.41
2017-10-02T01:47:50.635Z,99.41
2017-10-02T01:48:50.307Z,99.22
2017-10-02T01:49:50.616Z,99.32
2017-10-02T01:50:50.607Z,99.22
2017-10-02T01:51:50.597Z,99.32
2017-10-02T01:52:50.588Z,99.22
2017-10-02T01:53:50.263Z,99.32
2017-10-02T01:54:50.573Z,99.32
2017-10-02T01:55:50.565Z,99.22
2017-10-02T01:56:50.551Z,99.32
2017-10-02T01:57:50.542Z,99.22
2017-10-02T01:58:50.536Z,99.22
2017-10-02T01:59:50.523Z,99.03
2017-10-02T02:00:50.517Z,99.22
2017-10-02T02:01:50.509Z,99.22
2017-10-02T02:02:50.498Z,99.22
2017-10-02T02:03:50.485Z,99.32
2017-10-02T02:04:50.480Z,99.13
2017-10-02T02:05:50.478Z,99.32
2017-10-02T02:06:50.462Z,99.32
2017-10-02T02:07:50.453Z,99.13
2017-10-02T02:08:50.443Z,99.22
2017-10-02T02:09:50.434Z,99.22
2017-10-02T02:10:50.423Z,99.22
2017-10-02T02:11:50.415Z,99.22
2017-10-02T02:12:50.408Z,99.32
2017-10-02T02:13:50.394Z,99.32
2017-10-02T02:14:50.068Z,99.27
2017-10-02T02:15:50.379Z,99.17
2017-10-02T02:16:50.366Z,99.03
2017-10-02T02:17:50.041Z,99.22
2017-10-02T02:18:50.349Z,98.98
2017-10-02T02:19:50.341Z,98.98
2017-10-02T02:20:50.330Z,99.32
2017-10-02T02:21:50.321Z,99.17
2017-10-02T02:22:50.315Z,99.03
2017-10-02T02:23:50.305Z,98.98
2017-10-02T02:24:50.294Z,99.03
2017-10-02T02:25:50.288Z,99.22
2017-10-02T02:26:49.957Z,99.69
2017-10-02T02:27:50.265Z,98.94
2017-10-02T02:28:50.259Z,99.89
2017-10-02T02:29:50.247Z,99.79
2017-10-02T02:30:50.240Z,99.69
2017-10-02T02:31:50.231Z,99.22
2017-10-02T02:32:50.224Z,98.98
2017-10-02T02:33:50.214Z,99.03
2017-10-02T02:34:50.203Z,99.6
2017-10-02T02:35:49.873Z,99.03
2017-10-02T02:36:50.187Z,99.03
2017-10-02T02:37:50.176Z,99.55
2017-10-02T02:38:50.164Z,99.32
2017-10-02T02:39:50.154Z,99.22
2017-10-02T02:40:50.145Z,99.17
2017-10-02T02:41:50.136Z,99.03
2017-10-02T02:42:50.140Z,99.22
2017-10-02T02:43:50.122Z,98.98
2017-10-02T02:44:50.112Z,99.13
2017-10-02T02:45:49.783Z,98.88
2017-10-02T02:46:50.102Z,99.17
2017-10-02T02:47:50.083Z,99.17
2017-10-02T02:48:50.076Z,99.22
2017-10-02T02:49:50.061Z,99.22
2017-10-02T02:50:49.733Z,99.03
2017-10-02T02:51:50.045Z,99.13
2017-10-02T02:52:50.187Z,99.08
2017-10-02T02:53:50.032Z,99.17
2017-10-02T02:54:50.017Z,99.32
2017-10-02T02:55:50.005Z,99.27
2017-10-02T02:56:49.680Z,98.98
2017-10-02T02:57:50.285Z,99.17
2017-10-02T02:58:49.980Z,99.17
2017-10-02T02:59:49.967Z,99.27
2017-10-02T03:00:49.962Z,98.88
2017-10-02T03:01:49.956Z,99.22
2017-10-02T03:02:49.944Z,99.17
2017-10-02T03:03:49.935Z,99.22
2017-10-02T03:04:49.923Z,99.84
2017-10-02T03:05:49.922Z,99.03
2017-10-02T03:06:49.906Z,99.22
2017-10-02T03:07:49.896Z,99.27
2017-10-02T03:08:49.884Z,99.17
2017-10-02T03:09:49.875Z,99.17
2017-10-02T03:10:49.865Z,99.22
2017-10-02T03:11:49.860Z,99.03
2017-10-02T03:12:49.846Z,99.27
2017-10-02T03:13:49.844Z,99.22
2017-10-02T03:14:49.829Z,99.17
2017-10-02T03:15:49.818Z,98.88
2017-10-02T03:16:49.813Z,98.98
2017-10-02T03:17:49.800Z,98.98
2017-10-02T03:18:49.792Z,99.08
2017-10-02T03:19:49.783Z,98.88
2017-10-02T03:20:49.774Z,99.22
2017-10-02T03:21:49.768Z,98.98
2017-10-02T03:22:49.755Z,98.94
2017-10-02T03:23:49.427Z,99.13
2017-10-02T03:24:49.738Z,98.98
2017-10-02T03:25:49.726Z,99.03
2017-10-02T03:26:49.717Z,99.46
2017-10-02T03:27:49.706Z,98.98
2017-10-02T03:28:49.700Z,99.89
2017-10-02T03:29:49.690Z,98.98
2017-10-02T03:30:49.687Z,99.55
2017-10-02T03:31:49.671Z,98.98
2017-10-02T03:32:49.342Z,98.88
2017-10-02T03:33:49.334Z,99.22
2017-10-02T03:34:49.324Z,99.17
2017-10-02T03:35:49.316Z,98.94
2017-10-02T03:36:49.625Z,99.13
2017-10-02T03:37:49.614Z,98.98
2017-10-02T03:38:49.607Z,99.17
2017-10-02T03:39:49.598Z,98.98
2017-10-02T03:40:49.585Z,99.27
2017-10-02T03:41:49.576Z,98.98
2017-10-02T03:42:49.566Z,99.17
2017-10-02T03:43:49.565Z,98.88
2017-10-02T03:44:49.547Z,98.98
2017-10-02T03:45:49.222Z,99.17
2017-10-02T03:46:49.529Z,98.98
2017-10-02T03:47:49.201Z,98.98
2017-10-02T03:48:49.511Z,99.17
2017-10-02T03:49:49.503Z,99.17
2017-10-02T03:50:49.502Z,98.98
2017-10-02T03:51:49.482Z,99.17
2017-10-02T03:52:49.474Z,98.98
2017-10-02T03:53:49.467Z,98.98
2017-10-02T03:54:49.458Z,99.17
2017-10-02T03:55:49.445Z,99.08
2017-10-02T03:56:49.443Z,99.08
2017-10-02T03:57:49.107Z,99.65
2017-10-02T03:58:49.418Z,99.08
2017-10-02T03:59:49.409Z,98.88
2017-10-02T04:00:49.403Z,99.55
2017-10-02T04:01:49.387Z,99.65
2017-10-02T04:02:49.380Z,99.46
2017-10-02T04:03:49.371Z,99.84
2017-10-02T04:04:49.359Z,99.65
2017-10-02T04:05:49.349Z,99.65
2017-10-02T04:06:49.339Z,99.65
2017-10-02T04:07:49.336Z,99.55
2017-10-02T04:08:49.321Z,99.17
2017-10-02T04:09:49.315Z,98.88
2017-10-02T04:10:49.301Z,99.65
2017-10-02T04:11:49.298Z,98.88
2017-10-02T04:12:49.285Z,99.84
2017-10-02T04:13:49.274Z,99.55
2017-10-02T04:14:48.946Z,98.98
2017-10-02T04:15:48.936Z,99.55
2017-10-02T04:16:49.264Z,99.84
2017-10-02T04:17:49.238Z,99.17
2017-10-02T04:18:48.909Z,99.84
2017-10-02T04:19:49.216Z,99.17
2017-10-02T04:20:49.210Z,99.74
2017-10-02T04:21:49.198Z,98.88
2017-10-02T04:22:49.188Z,98.98
2017-10-02T04:23:49.178Z,98.98
2017-10-02T04:24:49.168Z,99.17
2017-10-02T04:25:48.843Z,99.17
2017-10-02T04:26:49.155Z,99.93
2017-10-02T04:27:49.143Z,99.08
2017-10-02T04:28:49.132Z,98.98
2017-10-02T04:29:48.805Z,99.84
2017-10-02T04:30:49.111Z,98.98
2017-10-02T04:31:48.785Z,98.98
2017-10-02T04:32:49.098Z,98.98
2017-10-02T04:33:49.084Z,98.98
2017-10-02T04:34:49.076Z,99.03
2017-10-02T04:35:49.067Z,99.17
2017-10-02T04:36:49.054Z,99.17
2017-10-02T04:37:49.045Z,98.98
2017-10-02T04:38:49.040Z,98.98
2017-10-02T04:39:48.707Z,99.17
2017-10-02T04:40:48.699Z,98.88
2017-10-02T04:41:48.688Z,99.17
2017-10-02T04:42:48.682Z,99.17
2017-10-02T04:43:48.990Z,98.88
2017-10-02T04:44:48.983Z,99.17
2017-10-02T04:45:48.972Z,98.98
2017-10-02T04:46:48.974Z,99.17
2017-10-02T04:47:48.633Z,99.46
2017-10-02T04:48:48.943Z,99.17
2017-10-02T04:49:48.937Z,99.22
2017-10-02T04:50:48.926Z,99.22
2017-10-02T04:51:48.916Z,99.22
2017-10-02T04:52:48.906Z,99.08
2017-10-02T04:53:48.894Z,99.03
2017-10-02T04:54:48.890Z,99.22
2017-10-02T04:55:48.559Z,99.17
2017-10-02T04:56:48.549Z,99.22
2017-10-02T04:57:48.540Z,99.22
2017-10-02T04:58:48.529Z,99.13
2017-10-02T04:59:48.839Z,99.13
2017-10-02T05:00:48.833Z,99.13
2017-10-02T05:01:48.819Z,99.22
2017-10-02T05:02:48.492Z,99.32
2017-10-02T05:03:48.799Z,99.22
2017-10-02T05:04:48.474Z,99.22
2017-10-02T05:05:48.466Z,99.32
2017-10-02T05:06:48.774Z,99.22
2017-10-02T05:07:48.447Z,99.51
2017-10-02T05:08:48.759Z,99.22
2017-10-02T05:09:48.748Z,99.32
2017-10-02T05:10:48.419Z,99.41
2017-10-02T05:11:48.728Z,99.41
2017-10-02T05:12:48.421Z,99.32
2017-10-02T05:13:48.389Z,99.03
2017-10-02T05:14:48.380Z,99.03
2017-10-02T05:15:48.370Z,99.32
2017-10-02T05:16:48.366Z,99.41
2017-10-02T05:17:48.356Z,99.03
2017-10-02T05:18:48.347Z,99.22
2017-10-02T05:19:48.334Z,99.32
2017-10-02T05:20:48.327Z,99.32
2017-10-02T05:21:48.637Z,99.22
2017-10-02T05:22:48.309Z,99.32
2017-10-02T05:23:48.620Z,99.32
2017-10-02T05:24:48.613Z,99.41
2017-10-02T05:25:48.602Z,99.22
2017-10-02T05:26:48.600Z,99.22
2017-10-02T05:27:48.264Z,98.74
2017-10-02T05:28:48.580Z,99.03
2017-10-02T05:29:48.561Z,98.65
2017-10-02T05:30:48.236Z,98.94
2017-10-02T05:31:48.226Z,98.84
2017-10-02T05:32:48.537Z,98.55
2017-10-02T05:33:48.211Z,99.22
2017-10-02T05:34:48.517Z,98.99
2017-10-02T05:35:48.191Z,98.99
2017-10-02T05:36:48.500Z,98.7
2017-10-02T05:37:48.172Z,98.79
2017-10-02T05:38:48.483Z,98.94
2017-10-02T05:39:48.157Z,99.13
2017-10-02T05:40:48.148Z,98.85
2017-10-02T05:41:48.459Z,99.13
2017-10-02T05:42:48.455Z,98.56
2017-10-02T05:43:48.121Z,98.7
2017-10-02T05:44:48.115Z,98.99
2017-10-02T05:45:48.424Z,98.7
2017-10-02T05:46:48.096Z,98.99
2017-10-02T05:47:48.407Z,98.9
2017-10-02T05:48:48.084Z,98.61
2017-10-02T05:49:48.395Z,98.66
2017-10-02T05:50:48.770Z,97.8
2017-10-02T05:51:48.378Z,98.18
2017-10-02T05:52:48.054Z,98.08
2017-10-02T05:53:48.045Z,98.37
2017-10-02T05:54:48.040Z,98.13
2017-10-02T05:55:48.033Z,98.23
2017-10-02T05:56:48.349Z,98.03
2017-10-02T05:57:48.020Z,97.94
2017-10-02T05:58:48.012Z,97.75
2017-10-02T05:59:48.007Z,98.08
2017-10-02T06:00:48.000Z,98.08
2017-10-02T06:01:48.314Z,97.99
2017-10-02T06:02:48.305Z,97.99
2017-10-02T06:03:48.298Z,98.18
2017-10-02T06:04:47.977Z,98.13
2017-10-02T06:05:48.286Z,98.18
2017-10-02T06:06:48.285Z,98.03
2017-10-02T06:07:48.277Z,98.08
2017-10-02T06:08:48.270Z,98.23
2017-10-02T06:09:48.263Z,98.13
2017-10-02T06:10:47.936Z,98.23
2017-10-02T06:11:48.258Z,98.32
2017-10-02T06:12:48.244Z,97.66
2017-10-02T06:13:48.238Z,98.03
2017-10-02T06:14:47.913Z,98.13
2017-10-02T06:15:48.231Z,98.03
2017-10-02T06:16:48.222Z,98.32
2017-10-02T06:17:48.213Z,98.13
2017-10-02T06:18:48.206Z,98.42
2017-10-02T06:19:47.881Z,98.03
2017-10-02T06:20:47.877Z,98.23
2017-10-02T06:21:47.867Z,98.66
2017-10-02T06:22:48.183Z,98.23
2017-10-02T06:23:48.173Z,98.56
2017-10-02T06:24:47.850Z,97.71
2017-10-02T06:25:47.844Z,98.66
2017-10-02T06:26:47.836Z,98.94
2017-10-02T06:27:48.150Z,98.75
2017-10-02T06:28:48.139Z,98.9
2017-10-02T06:29:47.816Z,98.75
2017-10-02T06:30:47.809Z,98.75
2017-10-02T06:31:48.121Z,98.75
2017-10-02T06:32:47.794Z,98.75
2017-10-02T06:33:48.107Z,98.47
2017-10-02T06:34:47.781Z,98.47
2017-10-02T06:35:48.092Z,98.47
2017-10-02T06:36:47.767Z,98.66
2017-10-02T06:37:47.762Z,98.52
2017-10-02T06:38:48.072Z,98.9
2017-10-02T06:39:47.746Z,98.71
2017-10-02T06:40:48.069Z,98.9
2017-10-02T06:41:48.055Z,98.8
2017-10-02T06:42:48.072Z,98.71
2017-10-02T06:43:47.720Z,98.75
2017-10-02T06:44:47.714Z,98.71
2017-10-02T06:45:48.028Z,98.75
2017-10-02T06:46:47.702Z,98.9
2017-10-02T06:47:47.694Z,98.8
2017-10-02T06:48:47.685Z,98.71
2017-10-02T06:49:47.680Z,98.9
2017-10-02T06:50:47.672Z,98.52
2017-10-02T06:51:47.986Z,98.52
2017-10-02T06:52:47.980Z,98.52
2017-10-02T06:53:47.971Z,98.8
2017-10-02T06:54:47.977Z,98.71
2017-10-02T06:55:47.957Z,98.71
2017-10-02T06:56:47.954Z,98.71
2017-10-02T06:57:47.627Z,98.71
2017-10-02T06:58:47.623Z,98.18
2017-10-02T06:59:47.934Z,98.13
2017-10-02T07:00:47.606Z,98.28
2017-10-02T07:01:47.602Z,98.18
2017-10-02T07:02:47.914Z,98.28
2017-10-02T07:03:47.589Z,98.28
2017-10-02T07:04:47.903Z,97.99
2017-10-02T07:05:47.903Z,98.08
2017-10-02T07:06:47.887Z,97.61
2017-10-02T07:07:47.562Z,98.08
2017-10-02T07:08:47.874Z,97.66
2017-10-02T07:09:47.549Z,96.89
2017-10-02T07:10:47.862Z,98.33
2017-10-02T07:11:47.537Z,97.85
2017-10-02T07:12:47.854Z,97.85
2017-10-02T07:13:47.848Z,97.47
2017-10-02T07:14:47.522Z,97.18
2017-10-02T07:15:47.834Z,97.08
2017-10-02T07:16:47.836Z,97.04
2017-10-02T07:17:47.825Z,97.23
2017-10-02T07:18:47.820Z,97.23
2017-10-02T07:19:47.815Z,97.42
2017-10-02T07:20:47.807Z,96.56
2017-10-02T07:21:47.799Z,97.33
2017-10-02T07:22:47.801Z,96.56
2017-10-02T07:23:47.793Z,97.47
2017-10-02T07:24:47.467Z,97.18
2017-10-02T07:25:47.464Z,96.61
2017-10-02T07:26:47.777Z,97.18
2017-10-02T07:27:47.776Z,95.79
2017-10-02T07:28:47.766Z,96.37
2017-10-02T07:29:47.444Z,96.75
2017-10-02T07:30:47.442Z,95.98
2017-10-02T07:31:47.434Z,96.18
2017-10-02T07:32:47.431Z,96.37
2017-10-02T07:33:47.426Z,95.31
2017-10-02T07:34:47.420Z,96.18
2017-10-02T07:35:47.416Z,95.61
2017-10-02T07:36:47.412Z,95.22
2017-10-02T07:37:47.407Z,95.79
2017-10-02T07:38:47.404Z,94.84
2017-10-02T07:39:47.400Z,94.5
2017-10-02T07:40:47.396Z,95.17
2017-10-02T07:41:47.394Z,95.17
2017-10-02T07:42:47.705Z,94.5
2017-10-02T07:43:47.382Z,94.79
2017-10-02T07:44:47.379Z,95.36
2017-10-02T07:45:47.696Z,94.89
2017-10-02T07:46:47.689Z,94.21
2017-10-02T07:47:47.693Z,93.93
2017-10-02T07:48:47.683Z,93.74
2017-10-02T07:49:47.680Z,93.35
2017-10-02T07:50:47.674Z,93.07
2017-10-02T07:51:47.672Z,93.16
2017-10-02T07:52:47.666Z,92.78
2017-10-02T07:53:47.344Z,93.35
2017-10-02T07:54:47.657Z,93.35
2017-10-02T07:55:47.662Z,93.54
2017-10-02T07:56:47.650Z,92.87
2017-10-02T07:57:47.645Z,92.97
2017-10-02T07:58:47.646Z,92.78
2017-10-02T07:59:47.638Z,92.78
2017-10-02T08:00:47.630Z,92.63
2017-10-02T08:01:47.629Z,92.63
2017-10-02T08:02:47.621Z,92.54
2017-10-02T08:03:47.618Z,92.44
2017-10-02T08:04:47.614Z,93.11
2017-10-02T08:05:47.610Z,92.35
2017-10-02T08:06:47.610Z,92.25
2017-10-02T08:07:47.601Z,92.35
2017-10-02T08:08:47.597Z,91.77
2017-10-02T08:09:47.601Z,92.35
2017-10-02T08:10:47.272Z,91.86
2017-10-02T08:11:47.589Z,91.86
2017-10-02T08:12:47.583Z,92.3
2017-10-02T08:13:47.581Z,92.58
2017-10-02T08:14:47.577Z,92.58
2017-10-02T08:15:47.569Z,91.82
2017-10-02T08:16:47.565Z,91.82
2017-10-02T08:17:47.572Z,91.53
2017-10-02T08:18:47.238Z,91.53
2017-10-02T08:19:47.563Z,90.86
2017-10-02T08:20:47.551Z,91.34
2017-10-02T08:21:47.545Z,91.91
2017-10-02T08:22:47.541Z,91.24
2017-10-02T08:23:47.536Z,91.14
2017-10-02T08:24:47.214Z,90.47
2017-10-02T08:25:47.526Z,91.05
2017-10-02T08:26:47.524Z,90.67
2017-10-02T08:27:47.521Z,91.14
2017-10-02T08:28:47.522Z,90.67
2017-10-02T08:29:47.514Z,90.38
2017-10-02T08:30:47.510Z,90.76
2017-10-02T08:31:47.501Z,90.42
2017-10-02T08:32:47.503Z,90.23
2017-10-02T08:33:47.497Z,89.56
2017-10-02T08:34:47.491Z,90.14
2017-10-02T08:35:47.491Z,90.33
2017-10-02T08:36:47.485Z,89.37
2017-10-02T08:37:47.478Z,89.47
2017-10-02T08:38:47.482Z,89.32
2017-10-02T08:39:47.474Z,89.61
2017-10-02T08:40:47.473Z,88.84
2017-10-02T08:41:47.469Z,88.65
2017-10-02T08:42:47.463Z,87.88
2017-10-02T08:43:47.144Z,88.74
2017-10-02T08:44:47.460Z,88.65
2017-10-02T08:45:47.130Z,88.35
2017-10-02T08:46:47.450Z,88.45
2017-10-02T08:47:47.446Z,88.35
2017-10-02T08:48:47.439Z,89.22
2017-10-02T08:49:47.435Z,88.55
2017-10-02T08:50:47.114Z,88.65
2017-10-02T08:51:47.431Z,88.65
2017-10-02T08:52:47.428Z,88.02
2017-10-02T08:53:47.420Z,88.02
2017-10-02T08:54:47.102Z,88.02
2017-10-02T08:55:47.413Z,87.63
2017-10-02T08:56:47.415Z,87.35
2017-10-02T08:57:47.414Z,87.15
2017-10-02T08:58:47.085Z,86.77
2017-10-02T08:59:47.400Z,87.05
2017-10-02T09:00:47.399Z,86
2017-10-02T09:01:47.395Z,86.38
2017-10-02T09:02:47.393Z,85.91
2017-10-02T09:03:47.391Z,86.14
2017-10-02T09:04:47.386Z,85.85
2017-10-02T09:05:47.390Z,86.29
2017-10-02T09:06:47.060Z,86.14
2017-10-02T09:07:47.378Z,86.24
2017-10-02T09:08:47.375Z,85.28
2017-10-02T09:09:47.368Z,86.43
2017-10-02T09:10:47.369Z,84.99
2017-10-02T09:11:47.046Z,84.36
2017-10-02T09:12:47.361Z,84.07
2017-10-02T09:13:47.361Z,84.07
2017-10-02T09:14:47.355Z,83.87
2017-10-02T09:15:47.355Z,83.53
2017-10-02T09:16:47.351Z,83.53
2017-10-02T09:17:47.026Z,82.38
2017-10-02T09:18:47.347Z,82.29
2017-10-02T09:19:47.023Z,82.48
2017-10-02T09:20:47.341Z,82.71
2017-10-02T09:21:47.342Z,81.56
2017-10-02T09:22:47.335Z,81.07
2017-10-02T09:23:47.333Z,81.65
2017-10-02T09:24:47.335Z,81.56
2017-10-02T09:25:47.329Z,79.92
2017-10-02T09:26:47.329Z,80.11
2017-10-02T09:27:47.327Z,80.6
2017-10-02T09:28:47.321Z,80.88
2017-10-02T09:29:47.317Z,81.27
2017-10-02T09:30:47.323Z,80.4
2017-10-02T09:31:47.317Z,80.3
2017-10-02T09:32:47.318Z,80.11
2017-10-02T09:33:46.995Z,80.02
2017-10-02T09:34:47.311Z,79.92
2017-10-02T09:35:46.992Z,80.5
2017-10-02T09:36:47.309Z,80.5
2017-10-02T09:37:47.303Z,80.5
2017-10-02T09:38:47.305Z,79.92
2017-10-02T09:39:47.305Z,80.02
2017-10-02T09:40:47.300Z,79.48
2017-10-02T09:41:47.324Z,79.53
2017-10-02T09:42:47.296Z,80.02
2017-10-02T09:43:47.304Z,79.35
2017-10-02T09:44:47.290Z,79.77
2017-10-02T09:45:46.969Z,78.71
2017-10-02T09:46:47.284Z,78.42
2017-10-02T09:47:47.287Z,78.23
2017-10-02T09:48:47.280Z,78.61
2017-10-02T09:49:47.287Z,78.13
2017-10-02T09:50:47.279Z,77.75
2017-10-02T09:51:47.279Z,78.13
2017-10-02T09:52:47.281Z,78.33
2017-10-02T09:53:47.275Z,77.65
2017-10-02T09:54:47.293Z,77.75
2017-10-02T09:55:47.269Z,77.75
2017-10-02T09:56:47.268Z,77.17
2017-10-02T09:57:46.945Z,77.36
2017-10-02T09:58:47.264Z,77.94
2017-10-02T09:59:47.282Z,77.65
2017-10-02T10:00:46.941Z,77.4
2017-10-02T10:01:47.262Z,76.92
2017-10-02T10:02:47.258Z,76.44
2017-10-02T10:03:47.270Z,75.57
2017-10-02T10:04:47.254Z,75.96
2017-10-02T10:05:47.254Z,76.06
2017-10-02T10:06:47.252Z,75.09
2017-10-02T10:07:47.251Z,74.71
2017-10-02T10:08:47.245Z,74.99
2017-10-02T10:09:47.248Z,74.9
2017-10-02T10:10:47.244Z,74.8
2017-10-02T10:11:47.240Z,75.86
2017-10-02T10:12:47.242Z,75.67
2017-10-02T10:13:47.240Z,75.28
2017-10-02T10:14:47.237Z,74.71
2017-10-02T10:15:47.233Z,75.13
2017-10-02T10:16:47.241Z,74.51
2017-10-02T10:17:47.232Z,74.55
2017-10-02T10:18:47.231Z,74.74
2017-10-02T10:19:47.250Z,74.74
2017-10-02T10:20:46.910Z,74.74
2017-10-02T10:21:47.230Z,74.45
2017-10-02T10:22:47.226Z,73.39
2017-10-02T10:23:47.222Z,72.72
2017-10-02T10:24:47.225Z,72.85
2017-10-02T10:25:47.221Z,72.47
2017-10-02T10:26:47.222Z,72.08
2017-10-02T10:27:47.222Z,71.6
2017-10-02T10:28:47.220Z,71.22
2017-10-02T10:29:47.221Z,69.96
2017-10-02T10:30:47.219Z,70.35
2017-10-02T10:31:47.215Z,71.89
2017-10-02T10:32:46.900Z,72.33
2017-10-02T10:33:47.211Z,71.85
2017-10-02T10:34:47.213Z,72.43
2017-10-02T10:35:47.217Z,73.3
2017-10-02T10:36:47.210Z,72.81
2017-10-02T10:37:47.210Z,72.14
2017-10-02T10:38:47.207Z,72.43
2017-10-02T10:39:47.210Z,72.05
2017-10-02T10:40:46.887Z,71.89
2017-10-02T10:41:47.202Z,71.79
2017-10-02T10:42:47.202Z,71.85
2017-10-02T10:43:47.202Z,72.33
2017-10-02T10:44:47.199Z,72.43
2017-10-02T10:45:46.880Z,72.33
2017-10-02T10:46:47.205Z,72.63
2017-10-02T10:47:46.878Z,72.05
2017-10-02T10:48:47.204Z,72.37
2017-10-02T10:49:47.203Z,72.27
2017-10-02T10:50:47.197Z,71.89
2017-10-02T10:51:46.874Z,71.6
2017-10-02T10:52:47.191Z,71.79
2017-10-02T10:53:47.189Z,71.89
2017-10-02T10:54:46.871Z,72.47
2017-10-02T10:55:46.870Z,72.27
2017-10-02T10:56:46.866Z,71.7
2017-10-02T10:57:47.190Z,72.08
2017-10-02T10:58:47.184Z,71.6
2017-10-02T10:59:47.184Z,71.5
2017-10-02T11:00:47.184Z,71.79
2017-10-02T11:01:47.181Z,72.47
2017-10-02T11:02:46.860Z,72.37
2017-10-02T11:03:47.176Z,72.27
2017-10-02T11:04:47.180Z,72.47
2017-10-02T11:05:47.177Z,71.89
2017-10-02T11:06:47.180Z,72.37
2017-10-02T11:07:46.854Z,72.37
2017-10-02T11:08:47.177Z,72.56
2017-10-02T11:09:47.174Z,72.66
2017-10-02T11:10:47.170Z,73.53
2017-10-02T11:11:46.853Z,72.43
2017-10-02T11:12:47.168Z,73.39
2017-10-02T11:13:47.166Z,73.3
2017-10-02T11:14:47.165Z,73.58
2017-10-02T11:15:47.163Z,73.3
2017-10-02T11:16:47.166Z,73.49
2017-10-02T11:17:47.161Z,73.49
2017-10-02T11:18:47.160Z,74.07
2017-10-02T11:19:47.159Z,74.36
2017-10-02T11:20:47.158Z,74.26
2017-10-02T11:21:47.157Z,74.93
2017-10-02T11:22:47.156Z,74.65
2017-10-02T11:23:47.154Z,75.19
2017-10-02T11:24:47.156Z,75.19
2017-10-02T11:25:46.834Z,75.67
2017-10-02T11:26:47.153Z,75.86
2017-10-02T11:27:46.829Z,76.15
2017-10-02T11:28:47.146Z,76.06
2017-10-02T11:29:47.141Z,76.59
2017-10-02T11:30:47.143Z,76.5
2017-10-02T11:31:47.142Z,77.08
2017-10-02T11:32:47.135Z,77.36
2017-10-02T11:33:47.134Z,77.65
2017-10-02T11:34:47.131Z,77.84
2017-10-02T11:35:47.131Z,77.94
2017-10-02T11:36:47.127Z,78.61
2017-10-02T11:37:47.127Z,79.73
2017-10-02T11:38:47.123Z,80.02
2017-10-02T11:39:47.119Z,80.4
2017-10-02T11:40:46.800Z,80.98
2017-10-02T11:41:47.116Z,81.17
2017-10-02T11:42:46.796Z,82.04
2017-10-02T11:43:47.115Z,82.61
2017-10-02T11:44:47.109Z,83.77
2017-10-02T11:45:46.790Z,84.16
2017-10-02T11:46:47.104Z,83.86
2017-10-02T11:47:47.101Z,84.06
2017-10-02T11:48:47.097Z,85.27
2017-10-02T11:49:47.093Z,86.8
2017-10-02T11:50:47.094Z,87.86
2017-10-02T11:51:47.090Z,87.19
2017-10-02T11:52:46.767Z,87.67
2017-10-02T11:53:47.084Z,88.53
2017-10-02T11:54:46.760Z,88.97
2017-10-02T11:55:47.078Z,89.45
2017-10-02T11:56:47.073Z,89.07
2017-10-02T11:57:46.750Z,89.64
2017-10-02T11:58:47.066Z,90.41
2017-10-02T11:59:47.064Z,91.37
2017-10-02T12:00:46.743Z,90.99
2017-10-02T12:01:47.057Z,90.7
2017-10-02T12:02:47.057Z,91.47
2017-10-02T12:03:47.053Z,92.05
2017-10-02T12:04:47.046Z,93.05
2017-10-02T12:05:47.048Z,93.92
2017-10-02T12:06:47.041Z,94.98
2017-10-02T12:07:47.039Z,95.26
2017-10-02T12:08:47.033Z,95.36
2017-10-02T12:09:47.029Z,95.26
2017-10-02T12:10:47.088Z,95.12
2017-10-02T12:11:47.024Z,95.6
2017-10-02T12:12:47.021Z,95.98
2017-10-02T12:13:47.018Z,96.18
2017-10-02T12:14:47.013Z,95.6
2017-10-02T12:15:47.007Z,95.79
2017-10-02T12:16:47.006Z,95.89
2017-10-02T12:17:47.002Z,96.13
2017-10-02T12:18:47.001Z,95.84
2017-10-02T12:19:46.995Z,95.84
2017-10-02T12:20:46.989Z,96.61
2017-10-02T12:21:46.988Z,96.32
2017-10-02T12:22:46.989Z,96.7
2017-10-02T12:23:46.978Z,96.89
2017-10-02T12:24:46.976Z,96.89
2017-10-02T12:25:46.969Z,96.47
2017-10-02T12:26:46.966Z,96.8
2017-10-02T12:27:46.960Z,96.75
2017-10-02T12:28:46.957Z,96.94
2017-10-02T12:29:46.952Z,96.66
2017-10-02T12:30:46.947Z,96.75
2017-10-02T12:31:46.942Z,96.47
2017-10-02T12:32:46.944Z,97.09
2017-10-02T12:33:46.937Z,96.51
2017-10-02T12:34:46.931Z,97.18
2017-10-02T12:35:46.927Z,96.99
2017-10-02T12:36:46.922Z,97.18
2017-10-02T12:37:46.925Z,97.09
2017-10-02T12:38:46.594Z,97.52
2017-10-02T12:39:46.591Z,97.71
2017-10-02T12:40:46.586Z,97.71
2017-10-02T12:41:46.904Z,97.71
2017-10-02T12:42:46.897Z,97.61
2017-10-02T12:43:46.891Z,97.71
2017-10-02T12:44:46.885Z,98.28
2017-10-02T12:45:46.886Z,98.1
2017-10-02T12:46:46.876Z,97.71
2017-10-02T12:47:46.872Z,97.71
2017-10-02T12:48:46.867Z,98.1
2017-10-02T12:49:46.865Z,98
2017-10-02T12:50:46.559Z,98.1
2017-10-02T12:51:46.851Z,97.9
2017-10-02T12:52:46.844Z,97.56
2017-10-02T12:53:46.843Z,97.85
2017-10-02T12:54:46.836Z,97.85